createdAt,value
2022-12-15T00:01:02.721Z,16.57
2022-12-15T00:04:23.607Z,16.55
2022-12-15T00:07:44.530Z,16.55
2022-12-15T00:11:05.290Z,16.51
2022-12-15T00:14:27.021Z,16.49
2022-12-15T00:17:48.008Z,16.49
2022-12-15T00:21:08.551Z,16.47
2022-12-15T00:24:29.393Z,16.44
2022-12-15T00:27:50.267Z,16.45
2022-12-15T00:31:11.156Z,16.44
2022-12-15T00:34:32.105Z,16.41
2022-12-15T00:37:52.835Z,16.41
2022-12-15T00:40:58.965Z,16.41
2022-12-15T00:44:01.195Z,16.34
2022-12-15T00:47:04.339Z,16.35
2022-12-15T00:50:25.030Z,16.34
2022-12-15T00:53:45.707Z,16.33
2022-12-15T00:57:06.506Z,16.32
2022-12-15T01:00:28.413Z,16.31
2022-12-15T01:03:49.282Z,16.29
2022-12-15T01:07:10.123Z,16.27
2022-12-15T01:10:31.052Z,16.25
2022-12-15T01:13:51.875Z,16.24
2022-12-15T01:17:12.649Z,16.20
2022-12-15T01:20:20.786Z,16.20
2022-12-15T01:23:22.842Z,16.19
2022-12-15T01:26:24.968Z,16.16
2022-12-15T01:29:27.007Z,16.15
2022-12-15T01:32:28.993Z,16.14
2022-12-15T01:35:31.069Z,16.13
2022-12-15T01:38:33.297Z,16.12
2022-12-15T01:41:35.324Z,16.12
2022-12-15T01:44:37.382Z,16.07
2022-12-15T01:47:39.382Z,16.06
2022-12-15T01:50:44.649Z,16.05
2022-12-15T01:54:03.468Z,16.03
2022-12-15T01:57:11.769Z,16.03
2022-12-15T02:00:14.756Z,16.03
2022-12-15T02:03:16.898Z,16.00
2022-12-15T02:06:22.308Z,16.00
2022-12-15T02:09:26.447Z,15.99
2022-12-15T02:12:31.542Z,15.98
2022-12-15T02:15:47.772Z,15.96
2022-12-15T02:19:24.974Z,15.95
2022-12-15T02:22:42.095Z,15.90
2022-12-15T02:25:56.271Z,15.92
2022-12-15T02:29:19.850Z,15.89
2022-12-15T02:32:30.831Z,15.88
2022-12-15T02:35:59.238Z,15.85
2022-12-15T02:39:02.142Z,15.84
2022-12-15T02:42:04.314Z,15.83
2022-12-15T02:45:11.213Z,15.83
2022-12-15T02:48:33.598Z,15.82
2022-12-15T02:51:53.263Z,15.80
2022-12-15T02:55:02.156Z,15.80
2022-12-15T02:58:22.069Z,15.76
2022-12-15T03:01:47.563Z,15.73
2022-12-15T03:04:52.372Z,15.73
2022-12-15T03:07:54.776Z,15.72
2022-12-15T03:10:57.967Z,15.71
2022-12-15T03:14:00.049Z,15.69
2022-12-15T03:17:04.036Z,15.68
2022-12-15T03:20:06.852Z,15.66
2022-12-15T03:23:08.869Z,15.65
2022-12-15T03:26:11.770Z,15.61
2022-12-15T03:29:13.886Z,15.61
2022-12-15T03:32:15.957Z,15.62
2022-12-15T03:35:18.103Z,15.60
2022-12-15T03:38:20.859Z,15.58
2022-12-15T03:41:22.881Z,15.57
2022-12-15T03:44:25.008Z,15.57
2022-12-15T03:47:26.982Z,15.56
2022-12-15T03:50:30.216Z,15.55
2022-12-15T03:53:32.591Z,15.52
2022-12-15T03:56:34.894Z,15.52
2022-12-15T03:59:36.895Z,15.48
2022-12-15T04:02:39.038Z,15.46
2022-12-15T04:05:41.106Z,15.47
2022-12-15T04:08:43.119Z,15.45
2022-12-15T04:11:45.117Z,15.44
2022-12-15T04:14:47.129Z,15.44
2022-12-15T04:17:51.745Z,15.43
2022-12-15T04:20:53.948Z,15.42
2022-12-15T04:24:14.715Z,15.46
2022-12-15T04:27:35.596Z,15.60
2022-12-15T04:30:56.812Z,15.68
2022-12-15T04:34:21.053Z,15.71
2022-12-15T04:37:41.762Z,15.76
2022-12-15T04:41:02.541Z,15.83
2022-12-15T04:44:23.374Z,15.92
2022-12-15T04:47:44.227Z,16.03
2022-12-15T04:51:05.106Z,16.13
2022-12-15T04:54:26.002Z,16.22
2022-12-15T04:57:46.778Z,16.32
2022-12-15T05:01:07.487Z,16.44
2022-12-15T05:04:28.322Z,16.46
2022-12-15T05:07:49.168Z,16.48
2022-12-15T05:11:10.091Z,16.61
2022-12-15T05:14:30.943Z,16.64
2022-12-15T05:17:51.837Z,16.67
2022-12-15T05:21:12.696Z,16.73
2022-12-15T05:24:33.490Z,16.81
2022-12-15T05:27:54.314Z,16.81
2022-12-15T05:31:15.145Z,16.80
2022-12-15T05:34:18.775Z,16.85
2022-12-15T05:37:20.863Z,16.93
2022-12-15T05:40:22.923Z,16.98
2022-12-15T05:43:26.691Z,16.95
2022-12-15T05:46:28.950Z,16.95
2022-12-15T05:49:31.087Z,17.01
2022-12-15T05:52:33.169Z,17.09
2022-12-15T05:55:35.208Z,17.09
2022-12-15T05:58:44.591Z,17.09
2022-12-15T06:01:47.543Z,17.06
2022-12-15T06:04:49.731Z,17.11
2022-12-15T06:07:51.896Z,17.18
2022-12-15T06:10:54.586Z,17.19
2022-12-15T06:13:58.022Z,17.17
2022-12-15T06:17:00.120Z,17.20
2022-12-15T06:20:02.423Z,17.26
2022-12-15T06:23:04.556Z,17.29
2022-12-15T06:26:14.141Z,17.25
2022-12-15T06:29:16.352Z,17.26
2022-12-15T06:32:18.423Z,17.33
2022-12-15T06:35:21.254Z,17.38
2022-12-15T06:38:23.564Z,17.36
2022-12-15T06:41:25.882Z,17.32
2022-12-15T06:44:27.919Z,17.35
2022-12-15T06:47:29.897Z,17.41
2022-12-15T06:50:31.888Z,17.50
2022-12-15T06:53:37.793Z,17.47
2022-12-15T06:56:39.827Z,17.49
2022-12-15T06:59:41.902Z,17.52
2022-12-15T07:02:44.125Z,17.59
2022-12-15T07:06:06.355Z,17.63
2022-12-15T07:09:13.972Z,17.61
2022-12-15T07:12:16.041Z,17.67
2022-12-15T07:15:18.242Z,17.76
2022-12-15T07:18:20.261Z,17.79
2022-12-15T07:21:22.599Z,17.79
2022-12-15T07:24:24.593Z,17.79
2022-12-15T07:27:26.710Z,17.80
2022-12-15T07:30:31.372Z,17.90
2022-12-15T07:33:38.414Z,17.92
2022-12-15T07:36:40.571Z,17.90
2022-12-15T07:39:43.189Z,17.90
2022-12-15T07:42:45.228Z,17.94
2022-12-15T07:45:53.005Z,18.00
2022-12-15T07:48:55.498Z,18.04
2022-12-15T07:51:58.400Z,18.06
2022-12-15T07:55:00.444Z,18.06
2022-12-15T07:58:02.748Z,18.12
2022-12-15T08:01:10.390Z,18.17
2022-12-15T08:04:12.511Z,18.28
2022-12-15T08:07:14.515Z,18.33
2022-12-15T08:10:16.702Z,18.34
2022-12-15T08:13:52.823Z,18.32
2022-12-15T08:16:41.213Z,18.36
2022-12-15T08:19:43.649Z,18.40
2022-12-15T08:22:45.691Z,18.41
2022-12-15T08:25:47.859Z,18.36
2022-12-15T08:28:50.314Z,18.37
2022-12-15T08:31:52.789Z,18.38
2022-12-15T08:34:54.854Z,18.46
2022-12-15T08:37:59.842Z,18.51
2022-12-15T08:41:13.621Z,18.46
2022-12-15T08:44:16.935Z,18.48
2022-12-15T08:47:19.082Z,18.44
2022-12-15T08:50:21.336Z,18.57
2022-12-15T08:53:31.878Z,18.65
2022-12-15T08:56:35.410Z,18.70
2022-12-15T08:59:37.433Z,18.61
2022-12-15T09:02:39.437Z,18.71
2022-12-15T09:05:41.417Z,18.83
2022-12-15T09:08:43.454Z,18.88
2022-12-15T09:11:47.395Z,18.86
2022-12-15T09:14:49.535Z,18.87
2022-12-15T09:17:51.755Z,18.89
2022-12-15T09:20:55.268Z,18.98
2022-12-15T09:24:01.281Z,19.03
2022-12-15T09:27:04.002Z,19.03
2022-12-15T09:30:07.063Z,18.99
2022-12-15T09:33:09.184Z,18.86
2022-12-15T09:36:13.078Z,18.87
2022-12-15T09:39:16.850Z,19.06
2022-12-15T09:42:27.988Z,19.09
2022-12-15T09:45:39.653Z,19.00
2022-12-15T09:48:45.239Z,19.02
2022-12-15T09:52:11.756Z,19.10
2022-12-15T09:55:34.176Z,19.21
2022-12-15T09:59:00.501Z,19.23
2022-12-15T10:02:46.977Z,19.17
2022-12-15T10:06:15.954Z,19.14
2022-12-15T10:09:29.797Z,19.23
2022-12-15T10:12:35.528Z,19.23
2022-12-15T10:16:13.068Z,19.20
2022-12-15T10:19:29.839Z,19.14
2022-12-15T10:22:36.702Z,19.18
2022-12-15T10:25:39.591Z,19.25
2022-12-15T10:28:51.699Z,19.36
2022-12-15T10:32:03.076Z,19.32
2022-12-15T10:35:16.325Z,19.29
2022-12-15T10:38:31.063Z,19.31
2022-12-15T10:41:33.702Z,19.41
2022-12-15T10:44:40.518Z,19.44
2022-12-15T10:47:56.334Z,19.42
2022-12-15T10:51:16.567Z,19.31
2022-12-15T10:54:18.890Z,19.32
2022-12-15T10:57:28.127Z,19.38
2022-12-15T11:00:32.558Z,19.43
2022-12-15T11:03:39.411Z,19.38
2022-12-15T11:06:42.817Z,19.30
2022-12-15T11:09:46.711Z,19.26
2022-12-15T11:13:00.791Z,19.28
2022-12-15T11:16:19.430Z,19.37
2022-12-15T11:19:49.108Z,19.41
2022-12-15T11:23:30.663Z,19.37
2022-12-15T11:26:40.386Z,19.30
2022-12-15T11:30:02.811Z,19.32
2022-12-15T11:33:04.847Z,19.38
2022-12-15T11:36:28.082Z,19.39
2022-12-15T11:39:58.229Z,19.36
2022-12-15T11:43:36.418Z,19.36
2022-12-15T11:46:52.171Z,19.33
2022-12-15T11:50:05.207Z,19.44
2022-12-15T11:53:14.545Z,19.46
2022-12-15T11:56:28.759Z,19.52
2022-12-15T11:59:54.911Z,19.48
2022-12-15T12:03:23.223Z,19.46
2022-12-15T12:06:37.832Z,19.45
2022-12-15T12:09:57.978Z,19.54
2022-12-15T12:13:20.306Z,19.57
2022-12-15T12:16:25.752Z,19.71
2022-12-15T12:19:50.712Z,19.67
2022-12-15T12:23:02.334Z,19.70
2022-12-15T12:26:39.914Z,19.79
2022-12-15T12:29:49.749Z,19.76
2022-12-15T12:33:03.783Z,19.75
2022-12-15T12:36:15.906Z,19.74
2022-12-15T12:39:21.172Z,19.66
2022-12-15T12:42:40.138Z,19.70
2022-12-15T12:45:58.774Z,19.79
2022-12-15T12:49:30.814Z,19.81
2022-12-15T12:52:37.375Z,19.81
2022-12-15T12:55:41.626Z,19.72
2022-12-15T12:58:45.324Z,19.67
2022-12-15T13:01:50.688Z,19.67
2022-12-15T13:04:59.887Z,19.71
2022-12-15T13:08:08.082Z,19.72
2022-12-15T13:11:44.567Z,19.72
2022-12-15T13:14:48.362Z,19.62
2022-12-15T13:18:22.309Z,19.58
2022-12-15T13:21:43.278Z,19.59
2022-12-15T13:24:50.690Z,19.66
2022-12-15T13:27:56.595Z,19.66
2022-12-15T13:31:16.793Z,19.61
2022-12-15T13:34:21.707Z,19.56
2022-12-15T13:37:51.299Z,19.50
2022-12-15T13:40:54.217Z,19.53
2022-12-15T13:43:58.488Z,19.53
2022-12-15T13:47:15.450Z,19.51
2022-12-15T13:50:51.453Z,19.48
2022-12-15T13:53:59.014Z,19.50
2022-12-15T13:57:15.719Z,19.51
2022-12-15T14:00:20.698Z,19.52
2022-12-15T14:03:23.737Z,19.51
2022-12-15T14:06:31.287Z,19.50
2022-12-15T14:09:36.110Z,19.54
2022-12-15T14:12:40.046Z,19.52
2022-12-15T14:15:46.287Z,19.56
2022-12-15T14:19:13.986Z,19.56
2022-12-15T14:26:06.099Z,19.58
2022-12-15T14:29:09.820Z,19.61
2022-12-15T14:32:11.890Z,19.58
2022-12-15T14:35:20.262Z,19.56
2022-12-15T14:38:27.520Z,19.56
2022-12-15T14:41:33.557Z,19.53
2022-12-15T14:44:48.083Z,19.44
2022-12-15T14:48:38.855Z,19.43
2022-12-15T14:51:25.407Z,19.39
2022-12-15T14:54:35.715Z,19.33
2022-12-15T14:57:45.842Z,19.31
2022-12-15T15:00:53.583Z,19.28
2022-12-15T15:04:06.843Z,19.22
2022-12-15T15:07:17.612Z,19.12
2022-12-15T15:10:28.735Z,19.09
2022-12-15T15:13:40.361Z,19.08
2022-12-15T15:16:43.180Z,19.05
2022-12-15T15:19:54.869Z,19.05
2022-12-15T15:23:11.769Z,19.03
2022-12-15T15:26:17.110Z,19.00
2022-12-15T15:29:41.467Z,19.00
2022-12-15T15:32:54.186Z,18.99
2022-12-15T15:35:58.446Z,18.98
2022-12-15T15:39:01.702Z,18.93
2022-12-15T15:42:12.849Z,18.88
2022-12-15T15:45:15.438Z,18.86
2022-12-15T15:48:28.124Z,18.84
2022-12-15T15:51:32.374Z,18.84
2022-12-15T15:54:36.034Z,18.84
2022-12-15T15:57:38.025Z,18.87
2022-12-15T16:00:40.633Z,18.87
2022-12-15T16:03:42.978Z,18.81
2022-12-15T16:06:47.745Z,18.84
2022-12-15T16:09:50.621Z,18.80
2022-12-15T16:12:55.396Z,18.79
2022-12-15T16:15:57.482Z,18.76
2022-12-15T16:18:59.857Z,18.73
2022-12-15T16:22:01.928Z,18.72
2022-12-15T16:25:05.349Z,18.72
2022-12-15T16:28:18.912Z,18.70
2022-12-15T16:31:41.692Z,18.69
2022-12-15T16:34:44.250Z,18.66
2022-12-15T16:37:47.102Z,18.62
2022-12-15T16:40:50.026Z,18.56
2022-12-15T16:43:52.371Z,18.53
2022-12-15T16:46:55.291Z,18.52
2022-12-15T16:49:57.856Z,18.48
2022-12-15T16:53:00.996Z,18.44
2022-12-15T16:56:08.333Z,18.48
2022-12-15T16:59:35.386Z,18.47
2022-12-15T17:02:40.546Z,18.39
2022-12-15T17:05:50.725Z,18.35
2022-12-15T17:08:56.831Z,18.35
2022-12-15T17:12:00.905Z,18.29
2022-12-15T17:15:06.432Z,18.28
2022-12-15T17:18:13.250Z,18.24
2022-12-15T17:21:30.664Z,18.24
2022-12-15T17:24:38.725Z,18.22
2022-12-15T17:27:43.056Z,18.22
2022-12-15T17:30:49.511Z,18.20
2022-12-15T17:33:53.391Z,18.21
2022-12-15T17:36:59.528Z,18.18
2022-12-15T17:40:02.694Z,18.17
2022-12-15T17:43:17.181Z,18.12
2022-12-15T17:46:21.059Z,18.12
2022-12-15T17:49:23.527Z,18.08
2022-12-15T17:52:29.797Z,18.09
2022-12-15T17:55:35.422Z,18.06
2022-12-15T17:58:37.774Z,18.04
2022-12-15T18:01:39.972Z,18.04
2022-12-15T18:04:42.886Z,18.03
2022-12-15T18:07:50.908Z,18.03
2022-12-15T18:10:56.207Z,17.99
2022-12-15T18:13:58.285Z,17.97
2022-12-15T18:17:00.290Z,17.97
2022-12-15T18:20:04.596Z,17.96
2022-12-15T18:23:14.024Z,17.95
2022-12-15T18:26:16.268Z,17.93
2022-12-15T18:29:18.560Z,17.94
2022-12-15T18:32:23.199Z,17.90
2022-12-15T18:35:32.196Z,17.89
2022-12-15T18:38:34.205Z,17.89
2022-12-15T18:41:36.218Z,17.85
2022-12-15T18:44:38.423Z,17.85
2022-12-15T18:47:40.617Z,17.88
2022-12-15T18:50:42.708Z,17.83
2022-12-15T18:53:45.618Z,17.79
2022-12-15T18:56:47.949Z,17.77
2022-12-15T18:59:49.981Z,17.74
2022-12-15T19:02:54.220Z,17.73
2022-12-15T19:06:10.579Z,17.74
2022-12-15T19:09:16.948Z,17.73
2022-12-15T19:12:19.134Z,17.73
2022-12-15T19:15:22.554Z,17.66
2022-12-15T19:18:44.126Z,17.68
2022-12-15T19:21:46.132Z,17.67
2022-12-15T19:24:53.946Z,17.67
2022-12-15T19:27:59.626Z,17.64
2022-12-15T19:31:02.028Z,17.61
2022-12-15T19:34:04.067Z,17.62
2022-12-15T19:37:16.230Z,17.61
2022-12-15T19:40:23.597Z,17.60
2022-12-15T19:43:26.388Z,17.58
2022-12-15T19:46:28.683Z,17.54
2022-12-15T19:49:30.734Z,17.54
2022-12-15T19:52:32.777Z,17.55
2022-12-15T19:55:36.430Z,17.51
2022-12-15T19:58:38.645Z,17.51
2022-12-15T20:01:40.763Z,17.50
2022-12-15T20:04:43.182Z,17.50
2022-12-15T20:07:46.138Z,17.47
2022-12-15T20:10:48.645Z,17.48
2022-12-15T20:13:51.486Z,17.47
2022-12-15T20:16:53.504Z,17.45
2022-12-15T20:19:55.533Z,17.44
2022-12-15T20:23:02.894Z,17.41
2022-12-15T20:26:06.835Z,17.38
2022-12-15T20:29:22.597Z,17.37
2022-12-15T20:32:24.627Z,17.37
2022-12-15T20:35:26.743Z,17.36
2022-12-15T20:38:33.639Z,17.36
2022-12-15T20:41:35.662Z,17.35
2022-12-15T20:44:37.638Z,17.32
2022-12-15T20:47:42.673Z,17.31
2022-12-15T20:50:47.362Z,17.30
2022-12-15T20:53:50.602Z,17.29
2022-12-15T20:56:53.158Z,17.26
2022-12-15T20:59:55.166Z,17.28
2022-12-15T21:02:57.586Z,17.26
2022-12-15T21:06:00.388Z,17.25
2022-12-15T21:09:02.733Z,17.23
2022-12-15T21:12:20.910Z,17.22
2022-12-15T21:15:23.725Z,17.20
2022-12-15T21:19:18.079Z,17.20
2022-12-15T21:21:51.980Z,17.15
2022-12-15T21:24:56.802Z,17.14
2022-12-15T21:27:58.866Z,17.15
2022-12-15T21:31:01.623Z,17.15
2022-12-15T21:34:03.649Z,17.13
2022-12-15T21:37:13.386Z,17.10
2022-12-15T21:40:21.263Z,17.10
2022-12-15T21:43:25.703Z,17.08
2022-12-15T21:46:28.766Z,17.06
2022-12-15T21:49:31.024Z,17.04
2022-12-15T21:52:33.076Z,17.04
2022-12-15T21:55:35.192Z,17.04
2022-12-15T21:58:37.192Z,17.04
2022-12-15T22:01:39.423Z,17.06
2022-12-15T22:04:41.489Z,17.05
2022-12-15T22:07:43.488Z,17.03
2022-12-15T22:10:46.954Z,17.03
2022-12-15T22:13:50.921Z,17.00
2022-12-15T22:16:53.802Z,17.00
2022-12-15T22:19:56.872Z,17.00
2022-12-15T22:22:58.881Z,16.94
2022-12-15T22:26:01.648Z,16.93
2022-12-15T22:29:13.143Z,16.93
2022-12-15T22:32:16.406Z,16.93
2022-12-15T22:35:24.132Z,16.92
2022-12-15T22:38:26.162Z,16.90
2022-12-15T22:41:28.196Z,16.86
2022-12-15T22:44:33.011Z,16.87
2022-12-15T22:47:37.268Z,16.85
2022-12-15T22:50:39.297Z,16.85
2022-12-15T22:53:41.702Z,16.84
2022-12-15T22:56:43.969Z,16.84
2022-12-15T23:00:02.801Z,16.80
2022-12-15T23:03:07.435Z,16.79
2022-12-15T23:06:09.517Z,16.76
2022-12-15T23:09:11.646Z,16.76
2022-12-15T23:12:13.625Z,16.76
2022-12-15T23:15:34.568Z,16.75
2022-12-15T23:18:36.653Z,16.73
2022-12-15T23:21:38.628Z,16.72
2022-12-15T23:24:40.781Z,16.70
2022-12-15T23:27:42.843Z,16.69
2022-12-15T23:30:49.761Z,16.66
2022-12-15T23:33:52.039Z,16.66
2022-12-15T23:36:54.300Z,16.65
2022-12-15T23:39:56.487Z,16.64
2022-12-15T23:42:58.482Z,16.63
2022-12-15T23:46:06.024Z,16.63
2022-12-15T23:49:08.361Z,16.59
2022-12-15T23:52:10.414Z,16.58
2022-12-15T23:55:12.530Z,16.57
2022-12-15T23:58:14.584Z,16.56
